Sand Lake, Florida
Current Conditions -  °F | °C
As of 7:53 PM on Sunday 21 Dec 2014 (Local Time) from KMCO Reporting Station
Overcast Overcast  
Wind Chill: 68°   Ceiling: 4600
Heat Index: 68°   Visibility: 10mi
Dew Point: 67°   Wind: 8mph
Humidity: 96%   Direction: 340°NNW
Pressure: 30.06"   Gusts: NA
Location:  28.4565°N, 81.4676°W
Report Text: KMCO 220053Z 34007KT 10SM SCT012 BKN046 OVC060 20/19 A3006 RMK AO2 RAE2357 SLP178 P0000 T02000194
Loading
Personal Weather Stations






























Interactive Weather Map New forecast layout! Learn more

10-Day Weather Forecast

Advertisements
Track Severe Weather on mobile